createdAt,value
2018-03-17T00:00:49.745Z,38.21
2018-03-17T00:01:49.706Z,38.24
2018-03-17T00:02:49.725Z,38.24
2018-03-17T00:03:49.746Z,38.23
2018-03-17T00:04:49.680Z,38.26
2018-03-17T00:05:49.717Z,38.16
2018-03-17T00:06:49.740Z,38.2
2018-03-17T00:07:49.694Z,38.21
2018-03-17T00:08:49.782Z,38.19
2018-03-17T00:09:49.744Z,38.31
2018-03-17T00:10:49.687Z,38.49
2018-03-17T00:11:49.736Z,38.16
2018-03-17T00:12:49.812Z,38.19
2018-03-17T00:13:49.778Z,38.24
2018-03-17T00:14:49.709Z,38.24
2018-03-17T00:15:49.712Z,38.2
2018-03-17T00:16:49.681Z,38.29
2018-03-17T00:17:49.716Z,38.25
2018-03-17T00:18:49.766Z,38.28
2018-03-17T00:19:49.681Z,38.28
2018-03-17T00:20:49.711Z,38.2
2018-03-17T00:21:49.707Z,38.28
2018-03-17T00:22:49.691Z,38.26
2018-03-17T00:23:49.753Z,38.24
2018-03-17T00:24:49.829Z,38.23
2018-03-17T00:25:49.679Z,38.21
2018-03-17T00:26:49.702Z,38.2
2018-03-17T00:27:49.700Z,38.28
2018-03-17T00:28:49.710Z,38.23
2018-03-17T00:29:49.707Z,38.24
2018-03-17T00:30:49.704Z,38.27
2018-03-17T00:31:49.697Z,38.24
2018-03-17T00:32:49.708Z,38.23
2018-03-17T00:33:49.715Z,38.21
2018-03-17T00:34:49.678Z,38.3
2018-03-17T00:35:49.707Z,38.2
2018-03-17T00:36:49.702Z,38.29
2018-03-17T00:37:49.700Z,38.27
2018-03-17T00:38:49.705Z,38.31
2018-03-17T00:39:49.747Z,38.23
2018-03-17T00:40:49.673Z,38.29
2018-03-17T00:41:49.699Z,38.23
2018-03-17T00:42:49.705Z,38.3
2018-03-17T00:43:49.673Z,38.33
2018-03-17T00:44:49.733Z,38.17
2018-03-17T00:45:49.700Z,38.2
2018-03-17T00:46:49.673Z,38.14
2018-03-17T00:47:49.735Z,38.26
2018-03-17T00:48:49.701Z,38.28
2018-03-17T00:49:49.838Z,38.24
2018-03-17T00:50:49.701Z,38.22
2018-03-17T00:51:49.727Z,38.34
2018-03-17T00:52:49.667Z,38.28
2018-03-17T00:53:49.709Z,38.12
2018-03-17T00:54:49.731Z,38.16
2018-03-17T00:55:49.683Z,38.37
2018-03-17T00:56:49.701Z,38.24
2018-03-17T00:57:49.716Z,38.21
2018-03-17T00:58:49.683Z,38.3
2018-03-17T00:59:49.699Z,38.33
2018-03-17T01:00:49.730Z,38.33
2018-03-17T01:01:49.667Z,38.13
2018-03-17T01:02:49.720Z,38.24
2018-03-17T01:03:49.722Z,38.3
2018-03-17T01:04:49.669Z,38.29
2018-03-17T01:05:49.707Z,38.25
2018-03-17T01:06:49.690Z,38.25
2018-03-17T01:07:49.667Z,38.24
2018-03-17T01:08:49.694Z,38.2
2018-03-17T01:09:49.695Z,38.3
2018-03-17T01:10:49.697Z,38.25
2018-03-17T01:11:49.698Z,38.26
2018-03-17T01:12:49.715Z,38.21
2018-03-17T01:13:49.680Z,38.2
2018-03-17T01:14:49.699Z,38.26
2018-03-17T01:15:49.693Z,38.23
2018-03-17T01:16:49.667Z,38.27
2018-03-17T01:17:49.694Z,38.25
2018-03-17T01:18:49.682Z,38.31
2018-03-17T01:19:49.667Z,38.29
2018-03-17T01:20:49.692Z,38.23
2018-03-17T01:21:49.702Z,38.29
2018-03-17T01:22:49.690Z,38.28
2018-03-17T01:23:49.688Z,38.25
2018-03-17T01:24:49.703Z,38.24
2018-03-17T01:25:49.670Z,38.24
2018-03-17T01:26:49.716Z,38.2
2018-03-17T01:27:49.814Z,38.26
2018-03-17T01:28:49.692Z,38.33
2018-03-17T01:29:49.691Z,38.22
2018-03-17T01:30:49.683Z,38.21
2018-03-17T01:31:49.663Z,38.26
2018-03-17T01:32:49.682Z,38.26
2018-03-17T01:33:49.693Z,38.17
2018-03-17T01:34:49.851Z,38.19
2018-03-17T01:35:49.695Z,38.18
2018-03-17T01:36:49.750Z,38.21
2018-03-17T01:37:49.649Z,38.21
2018-03-17T01:38:49.682Z,38.22
2018-03-17T01:39:49.715Z,38.31
2018-03-17T01:40:49.661Z,38.18
2018-03-17T01:41:49.715Z,38.18
2018-03-17T01:42:49.676Z,38.3
2018-03-17T01:43:49.660Z,38.22
2018-03-17T01:44:49.691Z,38.15
2018-03-17T01:45:49.696Z,38.31
2018-03-17T01:46:49.672Z,38.29
2018-03-17T01:47:49.682Z,38.16
2018-03-17T01:48:49.703Z,38.22
2018-03-17T01:49:49.656Z,38.09
2018-03-17T01:50:49.844Z,38.07
2018-03-17T01:51:49.702Z,38.27
2018-03-17T01:52:49.655Z,38.27
2018-03-17T01:53:49.673Z,38.22
2018-03-17T01:54:49.701Z,38.28
2018-03-17T01:55:49.657Z,38.2
2018-03-17T01:56:49.685Z,38.22
2018-03-17T01:57:49.683Z,38.31
2018-03-17T01:58:49.676Z,38.2
2018-03-17T01:59:49.680Z,38.2
2018-03-17T02:00:49.683Z,38.27
2018-03-17T02:01:49.690Z,38.24
2018-03-17T02:02:49.683Z,38.14
2018-03-17T02:03:49.684Z,38.22
2018-03-17T02:04:49.657Z,38.29
2018-03-17T02:05:49.682Z,38.19
2018-03-17T02:06:49.671Z,38.16
2018-03-17T02:07:49.672Z,38.1
2018-03-17T02:08:49.678Z,38.16
2018-03-17T02:09:49.693Z,38.25
2018-03-17T02:10:49.654Z,38.23
2018-03-17T02:11:49.671Z,38.26
2018-03-17T02:12:49.693Z,38.11
2018-03-17T02:13:49.734Z,38.21
2018-03-17T02:14:49.780Z,38.21
2018-03-17T02:15:49.667Z,38.2
2018-03-17T02:16:49.678Z,38.21
2018-03-17T02:17:49.665Z,38.15
2018-03-17T02:18:49.673Z,38.2
2018-03-17T02:19:49.672Z,38.24
2018-03-17T02:20:49.675Z,38.3
2018-03-17T02:21:49.668Z,38.23
2018-03-17T02:22:49.640Z,38.28
2018-03-17T02:23:49.671Z,38.18
2018-03-17T02:24:49.700Z,38.23
2018-03-17T02:25:49.635Z,38.31
2018-03-17T02:26:49.668Z,38.14
2018-03-17T02:27:49.668Z,38.4
2018-03-17T02:28:49.673Z,38.26
2018-03-17T02:29:49.956Z,38.22
2018-03-17T02:30:49.690Z,38.27
2018-03-17T02:31:49.636Z,38.24
2018-03-17T02:32:49.670Z,38.24
2018-03-17T02:33:49.705Z,38.23
2018-03-17T02:34:49.665Z,38.24
2018-03-17T02:35:49.664Z,38.25
2018-03-17T02:36:49.681Z,38.21
2018-03-17T02:37:49.646Z,38.29
2018-03-17T02:38:49.664Z,38.24
2018-03-17T02:39:49.684Z,38.28
2018-03-17T02:40:49.637Z,38.25
2018-03-17T02:41:49.668Z,38.24
2018-03-17T02:42:49.680Z,38.32
2018-03-17T02:43:49.635Z,38.22
2018-03-17T02:44:49.697Z,38.21
2018-03-17T02:45:49.672Z,38.32
2018-03-17T02:46:49.638Z,38.19
2018-03-17T02:47:49.666Z,38.26
2018-03-17T02:48:49.701Z,38.34
2018-03-17T02:49:49.635Z,38.36
2018-03-17T02:50:49.695Z,38.21
2018-03-17T02:51:49.674Z,38.22
2018-03-17T02:52:49.643Z,38.26
2018-03-17T02:53:49.660Z,38.26
2018-03-17T02:54:49.680Z,38.2
2018-03-17T02:55:49.671Z,38.29
2018-03-17T02:56:49.658Z,38.38
2018-03-17T02:57:49.664Z,38.19
2018-03-17T02:58:49.638Z,38.14
2018-03-17T02:59:49.676Z,38.33
2018-03-17T03:00:49.681Z,38.23
2018-03-17T03:01:49.656Z,38.25
2018-03-17T03:02:49.670Z,38.31
2018-03-17T03:03:49.671Z,38.23
2018-03-17T03:04:49.629Z,38.31
2018-03-17T03:05:49.666Z,38.31
2018-03-17T03:06:49.699Z,38.25
2018-03-17T03:07:49.657Z,38.24
2018-03-17T03:08:49.659Z,38.25
2018-03-17T03:09:49.657Z,38.23
2018-03-17T03:10:49.634Z,38.15
2018-03-17T03:11:49.673Z,38.18
2018-03-17T03:12:49.656Z,38.14
2018-03-17T03:13:49.628Z,38.23
2018-03-17T03:14:49.671Z,38.24
2018-03-17T03:15:49.659Z,38.15
2018-03-17T03:16:49.640Z,38.16
2018-03-17T03:17:49.655Z,38.2
2018-03-17T03:18:49.666Z,38.18
2018-03-17T03:19:49.640Z,38.21
2018-03-17T03:20:49.675Z,38.24
2018-03-17T03:21:49.690Z,38.26
2018-03-17T03:22:49.630Z,38.2
2018-03-17T03:23:49.648Z,38.13
2018-03-17T03:24:49.650Z,38.17
2018-03-17T03:25:49.632Z,38.22
2018-03-17T03:26:49.675Z,38.11
2018-03-17T03:27:49.666Z,38.2
2018-03-17T03:28:49.614Z,38.09
2018-03-17T03:29:49.645Z,38.09
2018-03-17T03:30:49.684Z,38.24
2018-03-17T03:31:49.633Z,38.08
2018-03-17T03:32:49.663Z,38.14
2018-03-17T03:33:49.645Z,38.16
2018-03-17T03:34:49.631Z,38.11
2018-03-17T03:35:49.690Z,38.17
2018-03-17T03:36:49.643Z,38.15
2018-03-17T03:37:49.628Z,38.19
2018-03-17T03:38:49.649Z,38.22
2018-03-17T03:39:49.669Z,38.1
2018-03-17T03:40:49.655Z,38.27
2018-03-17T03:41:49.627Z,38.18
2018-03-17T03:42:49.644Z,38.24
2018-03-17T03:43:49.621Z,38.25
2018-03-17T03:44:49.656Z,38.17
2018-03-17T03:45:49.641Z,38.19
2018-03-17T03:46:49.641Z,38.22
2018-03-17T03:47:49.651Z,38.24
2018-03-17T03:48:49.644Z,38.2
2018-03-17T03:49:49.618Z,38.19
2018-03-17T03:50:49.646Z,38.18
2018-03-17T03:51:49.662Z,38.09
2018-03-17T03:52:49.607Z,38.17
2018-03-17T03:53:49.636Z,38.12
2018-03-17T03:54:49.658Z,38.12
2018-03-17T03:55:49.610Z,38.22
2018-03-17T03:56:49.900Z,38.04
2018-03-17T03:57:49.639Z,38.1
2018-03-17T03:58:49.620Z,38.18
2018-03-17T03:59:49.611Z,38.1
2018-03-17T04:00:49.644Z,38.11
2018-03-17T04:01:49.618Z,38.07
2018-03-17T04:02:49.634Z,38.14
2018-03-17T04:03:49.640Z,38.16
2018-03-17T04:04:49.626Z,38.14
2018-03-17T04:05:49.661Z,38.14
2018-03-17T04:06:49.646Z,38.13
2018-03-17T04:07:49.625Z,38.15
2018-03-17T04:08:49.646Z,38.09
2018-03-17T04:09:49.637Z,38.17
2018-03-17T04:10:49.626Z,38.18
2018-03-17T04:11:49.636Z,38.04
2018-03-17T04:12:49.805Z,38.14
2018-03-17T04:13:49.605Z,38.18
2018-03-17T04:14:49.750Z,38.1
2018-03-17T04:15:49.739Z,38.08
2018-03-17T04:16:49.626Z,38.18
2018-03-17T04:17:49.670Z,38.18
2018-03-17T04:18:49.645Z,38.1
2018-03-17T04:19:49.605Z,38.16
2018-03-17T04:20:49.636Z,38.02
2018-03-17T04:21:49.634Z,38.14
2018-03-17T04:22:49.635Z,38.04
2018-03-17T04:23:49.656Z,38.03
2018-03-17T04:24:49.622Z,38.16
2018-03-17T04:25:49.610Z,38.11
2018-03-17T04:26:49.628Z,38.09
2018-03-17T04:27:49.629Z,38.14
2018-03-17T04:28:49.608Z,38.18
2018-03-17T04:29:49.628Z,38.19
2018-03-17T04:30:49.629Z,38.07
2018-03-17T04:31:49.624Z,38.13
2018-03-17T04:32:49.641Z,38.14
2018-03-17T04:33:49.642Z,38.07
2018-03-17T04:34:49.596Z,38
2018-03-17T04:35:49.654Z,38.05
2018-03-17T04:36:49.640Z,37.99
2018-03-17T04:37:49.618Z,38.02
2018-03-17T04:38:49.637Z,38.01
2018-03-17T04:39:49.626Z,38.03
2018-03-17T04:40:49.621Z,38.14
2018-03-17T04:41:49.609Z,38.13
2018-03-17T04:42:49.658Z,38.08
2018-03-17T04:43:49.621Z,38.11
2018-03-17T04:44:49.625Z,38.01
2018-03-17T04:45:49.637Z,38.11
2018-03-17T04:46:49.603Z,38
2018-03-17T04:47:49.652Z,38.08
2018-03-17T04:48:49.643Z,38.16
2018-03-17T04:49:49.590Z,38.01
2018-03-17T04:50:49.798Z,38.15
2018-03-17T04:51:49.631Z,38.14
2018-03-17T04:52:49.593Z,38.13
2018-03-17T04:53:49.624Z,38.12
2018-03-17T04:54:49.635Z,38.12
2018-03-17T04:55:49.620Z,38.24
2018-03-17T04:56:49.624Z,38.11
2018-03-17T04:57:49.643Z,38.11
2018-03-17T04:58:49.601Z,38.12
2018-03-17T04:59:49.649Z,38.17
2018-03-17T05:00:49.652Z,38.23
2018-03-17T05:01:49.604Z,38.17
2018-03-17T05:02:49.646Z,38.19
2018-03-17T05:03:49.621Z,38.15
2018-03-17T05:04:49.591Z,38.25
2018-03-17T05:05:49.623Z,38.18
2018-03-17T05:06:49.620Z,38.1
2018-03-17T05:07:49.593Z,38
2018-03-17T05:08:49.614Z,38.28
2018-03-17T05:09:49.619Z,38.21
2018-03-17T05:10:49.610Z,38.2
2018-03-17T05:11:49.612Z,38.29
2018-03-17T05:12:49.635Z,38.17
2018-03-17T05:13:49.583Z,38.11
2018-03-17T05:14:49.637Z,38.21
2018-03-17T05:15:49.611Z,38.24
2018-03-17T05:16:49.583Z,38.18
2018-03-17T05:17:49.646Z,38.16
2018-03-17T05:18:49.619Z,38.2
2018-03-17T05:19:49.612Z,38.27
2018-03-17T05:20:49.622Z,38.18
2018-03-17T05:21:49.629Z,38.23
2018-03-17T05:22:49.596Z,38.2
2018-03-17T05:23:49.638Z,38.06
2018-03-17T05:24:49.770Z,38.3
2018-03-17T05:25:49.602Z,38.21
2018-03-17T05:26:49.612Z,38.12
2018-03-17T05:27:49.626Z,38.11
2018-03-17T05:28:49.629Z,37.99
2018-03-17T05:29:49.629Z,37.96
2018-03-17T05:30:49.615Z,37.94
2018-03-17T05:31:49.573Z,37.94
2018-03-17T05:32:49.601Z,37.87
2018-03-17T05:33:49.604Z,37.91
2018-03-17T05:34:49.594Z,37.85
2018-03-17T05:35:49.644Z,37.84
2018-03-17T05:36:49.602Z,37.74
2018-03-17T05:37:49.587Z,37.76
2018-03-17T05:38:49.613Z,37.76
2018-03-17T05:39:49.629Z,37.71
2018-03-17T05:40:49.591Z,37.74
2018-03-17T05:41:49.611Z,37.77
2018-03-17T05:42:49.634Z,37.7
2018-03-17T05:43:49.579Z,37.68
2018-03-17T05:44:49.631Z,37.64
2018-03-17T05:45:49.640Z,37.68
2018-03-17T05:46:49.589Z,37.75
2018-03-17T05:47:49.614Z,37.7
2018-03-17T05:48:49.630Z,37.68
2018-03-17T05:49:49.590Z,37.64
2018-03-17T05:50:49.603Z,37.72
2018-03-17T05:51:49.601Z,37.63
2018-03-17T05:52:49.599Z,37.66
2018-03-17T05:53:49.736Z,37.57
2018-03-17T05:54:49.603Z,37.66
2018-03-17T05:55:49.578Z,37.66
2018-03-17T05:56:49.602Z,37.7
2018-03-17T05:57:49.631Z,37.6
2018-03-17T05:58:49.600Z,37.68
2018-03-17T05:59:49.619Z,37.66
2018-03-17T06:00:49.618Z,37.61
2018-03-17T06:01:49.573Z,37.62
2018-03-17T06:02:49.601Z,37.64
2018-03-17T06:03:49.625Z,37.6
2018-03-17T06:04:49.570Z,37.63
2018-03-17T06:05:49.600Z,37.62
2018-03-17T06:06:49.599Z,37.58
2018-03-17T06:07:49.583Z,37.57
2018-03-17T06:08:49.627Z,37.61
2018-03-17T06:09:49.613Z,37.58
2018-03-17T06:10:49.578Z,37.59
2018-03-17T06:11:49.595Z,37.63
2018-03-17T06:12:49.593Z,37.56
2018-03-17T06:13:49.604Z,37.58
2018-03-17T06:14:49.625Z,37.53
2018-03-17T06:15:49.719Z,37.62
2018-03-17T06:16:49.673Z,37.52
2018-03-17T06:17:49.598Z,37.6
2018-03-17T06:18:49.985Z,37.53
2018-03-17T06:19:49.564Z,37.67
2018-03-17T06:20:49.599Z,37.61
2018-03-17T06:21:49.623Z,37.51
2018-03-17T06:22:49.566Z,37.59
2018-03-17T06:23:49.620Z,37.48
2018-03-17T06:24:49.629Z,37.61
2018-03-17T06:25:49.551Z,37.47
2018-03-17T06:26:49.595Z,37.6
2018-03-17T06:27:49.598Z,37.46
2018-03-17T06:28:49.558Z,37.42
2018-03-17T06:29:49.615Z,37.54
2018-03-17T06:30:49.782Z,37.49
2018-03-17T06:31:49.576Z,37.56
2018-03-17T06:32:49.596Z,37.52
2018-03-17T06:33:49.467Z,37.54
2018-03-17T06:34:49.564Z,37.49
2018-03-17T06:35:49.602Z,37.6
2018-03-17T06:36:49.587Z,37.52
2018-03-17T06:37:49.552Z,37.4
2018-03-17T06:38:49.615Z,37.54
2018-03-17T06:39:49.600Z,37.44
2018-03-17T06:40:49.562Z,37.45
2018-03-17T06:41:49.584Z,37.53
2018-03-17T06:42:49.600Z,37.43
2018-03-17T06:43:49.752Z,37.42
2018-03-17T06:44:49.596Z,37.39
2018-03-17T06:45:49.582Z,37.5
2018-03-17T06:46:49.551Z,37.39
2018-03-17T06:47:49.598Z,37.41
2018-03-17T06:48:49.885Z,37.45
2018-03-17T06:49:49.569Z,37.41
2018-03-17T06:50:49.583Z,37.38
2018-03-17T06:51:49.597Z,37.31
2018-03-17T06:52:49.558Z,37.44
2018-03-17T06:53:49.606Z,37.4
2018-03-17T06:54:49.582Z,37.32
2018-03-17T06:55:49.611Z,37.33
2018-03-17T06:56:49.578Z,37.41
2018-03-17T06:57:49.594Z,37.2
2018-03-17T06:58:49.556Z,37.34
2018-03-17T06:59:49.572Z,37.32
2018-03-17T07:00:49.612Z,37.27
2018-03-17T07:01:49.558Z,37.26
2018-03-17T07:02:49.598Z,37.37
2018-03-17T07:03:49.576Z,37.23
2018-03-17T07:04:49.554Z,37.27
2018-03-17T07:05:49.583Z,37.31
2018-03-17T07:06:49.588Z,37.23
2018-03-17T07:07:49.551Z,37.35
2018-03-17T07:08:49.602Z,37.24
2018-03-17T07:09:49.603Z,37.24
2018-03-17T07:10:49.555Z,37.32
2018-03-17T07:11:49.585Z,37.2
2018-03-17T07:12:49.593Z,37.3
2018-03-17T07:13:49.612Z,37.16
2018-03-17T07:14:49.573Z,37.22
2018-03-17T07:15:49.593Z,37.21
2018-03-17T07:16:49.556Z,37.21
2018-03-17T07:17:49.580Z,37.27
2018-03-17T07:18:49.599Z,37.21
2018-03-17T07:19:49.541Z,37.16
2018-03-17T07:20:49.574Z,37.26
2018-03-17T07:21:49.574Z,37.13
2018-03-17T07:22:49.568Z,37.26
2018-03-17T07:23:49.603Z,37.3
2018-03-17T07:24:49.575Z,37.2
2018-03-17T07:25:49.549Z,37.07
2018-03-17T07:26:49.558Z,37.17
2018-03-17T07:27:49.589Z,37.14
2018-03-17T07:28:49.582Z,37.19
2018-03-17T07:29:49.607Z,37.18
2018-03-17T07:30:49.570Z,37.11
2018-03-17T07:31:49.551Z,37.12
2018-03-17T07:32:49.583Z,37.15
2018-03-17T07:33:49.608Z,37.17
2018-03-17T07:34:49.566Z,37.16
2018-03-17T07:35:49.643Z,37.25
2018-03-17T07:36:49.565Z,37.1
2018-03-17T07:37:49.556Z,37.14
2018-03-17T07:38:49.565Z,37.11
2018-03-17T07:39:49.558Z,37.17
2018-03-17T07:40:49.575Z,37.08
2018-03-17T07:41:49.606Z,37.1
2018-03-17T07:42:49.574Z,37.1
2018-03-17T07:43:49.527Z,37.07
2018-03-17T07:44:49.563Z,37.08
2018-03-17T07:45:49.582Z,37.08
2018-03-17T07:46:49.548Z,37.09
2018-03-17T07:47:49.586Z,37.04
2018-03-17T07:48:49.572Z,37.02
2018-03-17T07:49:49.547Z,37.07
2018-03-17T07:50:49.576Z,37.05
2018-03-17T07:51:49.586Z,37.08
2018-03-17T07:52:49.710Z,37.02
2018-03-17T07:53:49.565Z,36.99
2018-03-17T07:54:49.557Z,36.96
2018-03-17T07:55:49.531Z,37.08
2018-03-17T07:56:49.591Z,37.05
2018-03-17T07:57:49.586Z,37.05
2018-03-17T07:58:49.531Z,36.95
2018-03-17T07:59:49.563Z,37.07
2018-03-17T08:00:49.575Z,36.94
2018-03-17T08:01:49.585Z,36.94
2018-03-17T08:02:49.570Z,36.96
2018-03-17T08:03:49.848Z,36.9
2018-03-17T08:04:49.545Z,36.93
2018-03-17T08:05:49.558Z,36.96
2018-03-17T08:06:49.593Z,36.92
2018-03-17T08:07:49.544Z,36.92
2018-03-17T08:08:49.590Z,36.94
2018-03-17T08:09:49.581Z,36.83
2018-03-17T08:10:49.529Z,36.87
2018-03-17T08:11:49.561Z,36.9
2018-03-17T08:12:49.848Z,36.84
2018-03-17T08:13:49.533Z,36.96
2018-03-17T08:14:49.583Z,36.82
2018-03-17T08:15:49.558Z,36.83
2018-03-17T08:16:49.630Z,36.9
2018-03-17T08:17:49.979Z,36.93
2018-03-17T08:18:49.556Z,36.85
2018-03-17T08:19:49.556Z,36.8
2018-03-17T08:20:49.552Z,36.87
2018-03-17T08:21:49.577Z,36.8
2018-03-17T08:22:49.561Z,36.85
2018-03-17T08:23:49.560Z,36.76
2018-03-17T08:24:49.565Z,36.76
2018-03-17T08:25:49.523Z,36.89
2018-03-17T08:26:49.549Z,36.79
2018-03-17T08:27:49.548Z,36.81
2018-03-17T08:28:49.533Z,36.79
2018-03-17T08:29:49.550Z,36.83
2018-03-17T08:30:49.580Z,36.75
2018-03-17T08:31:49.532Z,36.65
2018-03-17T08:32:49.551Z,36.82
2018-03-17T08:33:49.557Z,36.75
2018-03-17T08:34:49.530Z,36.78
2018-03-17T08:35:49.550Z,36.75
2018-03-17T08:36:49.563Z,36.81
2018-03-17T08:37:49.528Z,36.76
2018-03-17T08:38:49.558Z,36.76
2018-03-17T08:39:49.568Z,36.77
2018-03-17T08:40:49.531Z,36.73
2018-03-17T08:41:49.561Z,36.74
2018-03-17T08:42:49.521Z,36.73
2018-03-17T08:43:49.551Z,36.77
2018-03-17T08:44:49.561Z,36.78
2018-03-17T08:45:49.566Z,36.73
2018-03-17T08:46:49.533Z,36.73
2018-03-17T08:47:49.548Z,36.68
2018-03-17T08:48:49.550Z,36.76
2018-03-17T08:49:49.547Z,36.73
2018-03-17T08:50:49.543Z,36.7
2018-03-17T08:51:49.389Z,36.71
2018-03-17T08:52:49.528Z,36.74
2018-03-17T08:53:49.542Z,36.67
2018-03-17T08:54:49.548Z,36.66
2018-03-17T08:55:49.510Z,36.68
2018-03-17T08:56:49.543Z,36.6
2018-03-17T08:57:49.577Z,36.72
2018-03-17T08:58:49.604Z,36.65
2018-03-17T08:59:49.537Z,36.61
2018-03-17T09:00:49.546Z,36.64
2018-03-17T09:01:49.509Z,36.69
2018-03-17T09:02:49.568Z,36.63
2018-03-17T09:03:49.540Z,36.68
2018-03-17T09:04:49.630Z,36.57
2018-03-17T09:05:49.542Z,36.6
2018-03-17T09:06:49.570Z,36.6
2018-03-17T09:07:49.649Z,36.58
2018-03-17T09:08:49.543Z,36.54
2018-03-17T09:09:49.527Z,36.59
2018-03-17T09:10:49.528Z,36.65
2018-03-17T09:11:49.545Z,36.6
2018-03-17T09:12:49.559Z,36.59
2018-03-17T09:13:49.506Z,36.63
2018-03-17T09:14:49.554Z,36.58
2018-03-17T09:15:49.541Z,36.63
2018-03-17T09:16:49.516Z,36.56
2018-03-17T09:17:49.564Z,36.54
2018-03-17T09:18:49.537Z,36.57
2018-03-17T09:19:49.522Z,36.57
2018-03-17T09:20:49.540Z,36.56
2018-03-17T09:21:49.552Z,36.57
2018-03-17T09:22:49.533Z,36.56
2018-03-17T09:23:49.538Z,36.53
2018-03-17T09:24:49.563Z,36.53
2018-03-17T09:25:49.515Z,36.56
2018-03-17T09:26:49.538Z,36.53
2018-03-17T09:27:49.535Z,36.5
2018-03-17T09:28:49.638Z,36.6
2018-03-17T09:29:49.535Z,36.51
2018-03-17T09:30:49.536Z,36.47
2018-03-17T09:31:49.500Z,36.61
2018-03-17T09:32:49.554Z,36.54
2018-03-17T09:33:49.587Z,36.53
2018-03-17T09:34:49.584Z,36.49
2018-03-17T09:35:49.555Z,36.48
2018-03-17T09:36:49.529Z,36.57
2018-03-17T09:37:49.500Z,36.48
2018-03-17T09:38:49.522Z,36.4
2018-03-17T09:39:49.532Z,36.49
2018-03-17T09:40:49.510Z,36.51
2018-03-17T09:41:49.602Z,36.43
2018-03-17T09:42:49.528Z,36.43
2018-03-17T09:43:49.532Z,36.5
2018-03-17T09:44:49.535Z,36.46
2018-03-17T09:45:49.554Z,36.46
2018-03-17T09:46:49.500Z,36.49
2018-03-17T09:47:49.521Z,36.44
2018-03-17T09:48:49.559Z,36.5
2018-03-17T09:49:49.496Z,36.47
2018-03-17T09:50:49.514Z,36.4
2018-03-17T09:51:49.532Z,36.43
2018-03-17T09:52:49.502Z,36.38
2018-03-17T09:53:49.560Z,36.4
2018-03-17T09:54:49.528Z,36.44
2018-03-17T09:55:49.505Z,36.42
2018-03-17T09:56:49.533Z,36.43
2018-03-17T09:57:49.533Z,36.42
2018-03-17T09:58:49.505Z,36.44
2018-03-17T09:59:49.528Z,36.35
2018-03-17T10:00:49.524Z,36.43
2018-03-17T10:01:49.530Z,36.37
2018-03-17T10:02:49.582Z,36.39
2018-03-17T10:03:49.527Z,36.4
2018-03-17T10:04:49.521Z,36.41
2018-03-17T10:05:49.534Z,36.43
2018-03-17T10:06:49.548Z,36.38
2018-03-17T10:07:49.488Z,36.43
2018-03-17T10:08:49.529Z,36.4
2018-03-17T10:09:49.562Z,36.35
2018-03-17T10:10:49.491Z,36.47
2018-03-17T10:11:49.553Z,36.51
2018-03-17T10:12:49.555Z,36.45
2018-03-17T10:13:49.497Z,36.62
2018-03-17T10:14:49.548Z,37.08
2018-03-17T10:15:49.522Z,37.33
2018-03-17T10:16:49.478Z,37.64
2018-03-17T10:17:49.643Z,37.83
2018-03-17T10:18:49.643Z,37.98
2018-03-17T10:19:49.527Z,38.03
2018-03-17T10:20:49.529Z,37.79
2018-03-17T10:21:49.520Z,37.74
2018-03-17T10:49:51.832Z,36.37
2018-03-17T10:50:51.879Z,36.58
2018-03-17T10:51:51.820Z,36.92
2018-03-17T10:52:51.823Z,37.22
2018-03-17T10:53:51.885Z,37.16
2018-03-17T10:54:51.894Z,36.98
2018-03-17T10:55:51.893Z,37.06
2018-03-17T10:56:51.854Z,37.14
2018-03-17T10:57:51.871Z,37.12
2018-03-17T10:58:51.827Z,36.94
2018-03-17T10:59:51.876Z,37.1
2018-03-17T11:00:51.876Z,37.07
2018-03-17T11:01:51.812Z,36.88
2018-03-17T11:02:51.885Z,36.79
2018-03-17T11:03:51.885Z,36.85
2018-03-17T11:04:51.823Z,36.84
2018-03-17T11:05:51.942Z,36.73
2018-03-17T11:06:51.881Z,36.67
2018-03-17T11:07:51.820Z,36.53
2018-03-17T11:08:51.850Z,36.56
2018-03-17T11:09:51.844Z,36.46
2018-03-17T11:10:51.840Z,36.38
2018-03-17T11:11:51.850Z,36.5
2018-03-17T11:12:51.842Z,36.39
2018-03-17T11:13:51.816Z,36.33
2018-03-17T11:14:51.858Z,36.36
2018-03-17T11:15:51.880Z,36.25
2018-03-17T11:16:51.880Z,36.69
2018-03-17T11:17:51.851Z,36.33
2018-03-17T11:18:51.846Z,36.18
2018-03-17T11:19:51.807Z,36.17
2018-03-17T11:20:51.887Z,36.22
2018-03-17T11:21:43.570Z,36.14
2018-03-17T11:22:43.472Z,36.15
2018-03-17T11:23:43.469Z,36.04
2018-03-17T11:24:43.535Z,36.05
2018-03-17T11:25:43.491Z,36.01
2018-03-17T11:26:15.229Z,36.33
2018-03-17T11:27:15.222Z,36.04
2018-03-17T11:28:15.190Z,35.92
2018-03-17T11:29:15.233Z,35.91
2018-03-17T11:30:15.170Z,35.79
2018-03-17T11:31:15.194Z,35.78
2018-03-17T11:32:15.193Z,35.67
2018-03-17T11:33:15.188Z,35.73
2018-03-17T11:34:15.188Z,35.68
2018-03-17T11:35:15.213Z,35.86
2018-03-17T11:36:15.212Z,35.78
2018-03-17T11:37:15.183Z,35.8
2018-03-17T11:38:15.231Z,35.83
2018-03-17T11:39:15.178Z,35.88
2018-03-17T11:40:15.178Z,35.87
2018-03-17T11:41:15.229Z,35.83
2018-03-17T11:42:15.199Z,35.91
2018-03-17T11:43:15.170Z,35.82
2018-03-17T11:44:15.232Z,35.83
2018-03-17T11:45:15.179Z,35.79
2018-03-17T11:46:15.199Z,35.82
2018-03-17T11:47:15.213Z,35.77
2018-03-17T11:48:15.172Z,35.87
2018-03-17T11:49:15.447Z,35.82
2018-03-17T11:50:15.207Z,35.77
2018-03-17T11:51:15.181Z,35.88
2018-03-17T11:52:15.176Z,35.81
2018-03-17T11:53:15.221Z,35.72
2018-03-17T11:54:15.219Z,35.86
2018-03-17T11:55:15.187Z,35.77
2018-03-17T11:56:15.209Z,35.75
2018-03-17T11:57:15.178Z,35.76
2018-03-17T11:58:15.170Z,35.75
2018-03-17T11:59:15.356Z,35.72
2018-03-17T12:00:15.180Z,35.78
2018-03-17T12:01:15.171Z,35.75
2018-03-17T12:02:15.295Z,35.68
2018-03-17T12:03:15.290Z,35.75
2018-03-17T12:04:15.198Z,35.73
2018-03-17T12:05:15.245Z,35.67
2018-03-17T12:06:15.176Z,35.74
2018-03-17T12:07:15.218Z,35.7
2018-03-17T12:08:15.284Z,35.59
2018-03-17T12:09:15.270Z,35.65
2018-03-17T12:10:15.271Z,35.64
2018-03-17T12:11:15.254Z,35.64
2018-03-17T12:12:15.228Z,35.66
2018-03-17T12:13:15.230Z,35.7
2018-03-17T12:14:15.293Z,35.59
2018-03-17T12:15:15.161Z,35.63
2018-03-17T12:16:15.300Z,35.6
2018-03-17T12:17:15.247Z,35.57
2018-03-17T12:18:15.246Z,35.58
2018-03-17T12:19:15.167Z,35.54
2018-03-17T12:20:15.304Z,35.53
2018-03-17T12:21:15.271Z,35.6
2018-03-17T12:22:15.171Z,35.49
2018-03-17T12:23:15.245Z,35.55
2018-03-17T12:24:15.187Z,35.54
2018-03-17T12:25:15.196Z,35.57
2018-03-17T12:26:15.285Z,35.6
2018-03-17T12:27:15.283Z,35.59
2018-03-17T12:28:15.184Z,35.55
2018-03-17T12:29:15.242Z,35.54
2018-03-17T12:30:15.193Z,35.46
2018-03-17T12:31:15.249Z,35.57
2018-03-17T12:32:15.213Z,35.53
2018-03-17T12:33:15.270Z,35.56
2018-03-17T12:34:15.187Z,35.61
2018-03-17T12:35:15.240Z,35.54
2018-03-17T12:36:15.214Z,35.53
2018-03-17T12:37:15.247Z,35.5
2018-03-17T12:38:15.286Z,35.45
2018-03-17T12:39:15.274Z,35.57
2018-03-17T12:40:15.191Z,35.5
2018-03-17T12:41:15.289Z,35.53
2018-03-17T12:42:15.243Z,35.52
2018-03-17T12:43:15.162Z,35.57
2018-03-17T12:44:15.319Z,35.57
2018-03-17T12:45:15.167Z,35.56
2018-03-17T12:46:15.195Z,35.54
2018-03-17T12:47:15.224Z,35.51
2018-03-17T12:48:15.307Z,35.55
2018-03-17T12:49:15.308Z,35.51
2018-03-17T12:50:15.295Z,35.49
2018-03-17T12:51:15.171Z,35.54
2018-03-17T12:52:15.165Z,35.51
2018-03-17T12:53:15.191Z,35.49
2018-03-17T12:54:15.174Z,35.56
2018-03-17T12:55:15.155Z,35.53
2018-03-17T12:56:15.195Z,35.49
2018-03-17T12:57:15.171Z,35.6
2018-03-17T12:58:15.180Z,35.5
2018-03-17T12:59:15.209Z,35.49
2018-03-17T13:00:15.153Z,35.55
2018-03-17T13:01:15.160Z,35.52
2018-03-17T13:02:15.211Z,35.57
2018-03-17T13:03:15.161Z,35.51
2018-03-17T13:04:15.172Z,35.5
2018-03-17T13:05:15.203Z,35.58
2018-03-17T13:06:15.173Z,35.57
2018-03-17T13:07:15.167Z,35.54
2018-03-17T13:08:15.203Z,35.5
2018-03-17T13:09:15.261Z,35.55
2018-03-17T13:10:15.267Z,35.56
2018-03-17T13:11:15.239Z,35.46
2018-03-17T13:12:15.156Z,35.52
2018-03-17T13:13:15.162Z,35.47
2018-03-17T13:14:15.273Z,35.51
2018-03-17T13:15:15.144Z,35.5
2018-03-17T13:16:15.164Z,35.54
2018-03-17T13:17:15.286Z,35.48
2018-03-17T13:18:15.148Z,35.58
2018-03-17T13:19:15.179Z,35.56
2018-03-17T13:20:15.204Z,35.51
2018-03-17T13:21:15.193Z,35.56
2018-03-17T13:22:15.185Z,35.55